首页
METAR-TAF:

METAR-TAF

机场 :

Mitiga International Airport

的黎波里, 利比亚

纬度: 32-54N, 经度: 13-17E, 海拔: 11米

当前天气观测

该预报发布于1小时和40分钟前的10:55 UTC
风速11节,风向东转东北
温度 30°C
湿度 59%
气压 1016 hPa
能見度: 8000
天空无云

METAR: HLLM 181055Z 07011KT 8000 SKC 30/21 Q1016

时间: 14:35 (12:35 UTC)

预报

该预报发布于19小时和35分钟前的17:00 UTC
预报有效从17日的 18点(UTC)到 18日的 18点(UTC)
风速12节,风向
能见度10公里或以上
1500米以下无云,无积雨云
成为
从 17日的 00点(UTC)到 18日的 02点(UTC)
风速2节,风向多变
能見度: 8000
成为
从 18日的 06点(UTC)到 18日的 08点(UTC)
风速10节,风向东转东北

TAF: HLLM 171700Z 1718/1818 09012KT CAVOK BECMG 1700/1802 VRB02KT 8000 NSC BECMG 1806/1808 06010KT

超过4000个机场的气象观测和天气预报(METAR&TAF报告)。

可查询的气象台以黄色和红色小点在地图上表示。

将鼠标移到小点上方,可查看气象台名称。

然后点击查看天气观测和预报。

如需切换地图:点击带黑十字的绿色按钮放大地图;点击带横线的绿色按钮缩小地图;或者点击绿色箭头查看邻近地区的地图。


METAR-TAF: